createdAt,value
2017-11-08T00:00:17.456Z,7.64
2017-11-08T00:01:17.450Z,7.69
2017-11-08T00:02:17.424Z,7.69
2017-11-08T00:03:17.421Z,7.68
2017-11-08T00:04:17.083Z,7.72
2017-11-08T00:05:17.073Z,7.71
2017-11-08T00:06:17.056Z,7.75
2017-11-08T00:07:17.369Z,7.72
2017-11-08T00:08:17.055Z,7.79
2017-11-08T00:09:17.028Z,7.85
2017-11-08T00:10:17.340Z,7.8
2017-11-08T00:11:16.997Z,7.82
2017-11-08T00:12:17.311Z,7.87
2017-11-08T00:13:16.981Z,7.86
2017-11-08T00:14:17.311Z,7.87
2017-11-08T00:15:17.284Z,7.87
2017-11-08T00:16:16.940Z,7.87
2017-11-08T00:17:16.945Z,7.86
2017-11-08T00:18:17.240Z,7.79
2017-11-08T00:19:17.233Z,7.87
2017-11-08T00:20:16.575Z,7.86
2017-11-08T00:21:17.214Z,7.87
2017-11-08T00:22:16.894Z,7.89
2017-11-08T00:23:16.866Z,7.89
2017-11-08T00:24:17.180Z,8
2017-11-08T00:25:17.164Z,7.93
2017-11-08T00:26:16.505Z,8
2017-11-08T00:27:16.826Z,8.1
2017-11-08T00:28:17.135Z,8.02
2017-11-08T00:29:16.798Z,8.05
2017-11-08T00:30:17.113Z,8.08
2017-11-08T00:31:16.776Z,8.04
2017-11-08T00:32:16.774Z,8.16
2017-11-08T00:33:16.757Z,8.15
2017-11-08T00:34:16.420Z,8.22
2017-11-08T00:35:17.054Z,8.16
2017-11-08T00:36:17.040Z,8.12
2017-11-08T00:37:16.704Z,8.15
2017-11-08T00:38:16.374Z,8.18
2017-11-08T00:39:16.683Z,8.16
2017-11-08T00:40:16.681Z,8.16
2017-11-08T00:41:16.984Z,8.19
2017-11-08T00:42:16.974Z,8.16
2017-11-08T00:43:16.640Z,8.15
2017-11-08T00:44:16.959Z,8.07
2017-11-08T00:45:16.635Z,8.18
2017-11-08T00:46:16.930Z,8.12
2017-11-08T00:47:16.596Z,8.18
2017-11-08T00:48:16.910Z,8.15
2017-11-08T00:49:16.895Z,8
2017-11-08T00:50:16.913Z,8.01
2017-11-08T00:51:16.873Z,8.07
2017-11-08T00:52:16.870Z,7.97
2017-11-08T00:53:16.871Z,7.95
2017-11-08T00:54:16.520Z,7.95
2017-11-08T00:55:16.834Z,7.89
2017-11-08T00:56:16.822Z,7.89
2017-11-08T00:57:16.816Z,7.83
2017-11-08T00:58:16.809Z,7.89
2017-11-08T00:59:16.812Z,7.85
2017-11-08T01:00:16.782Z,7.8
2017-11-08T01:01:16.768Z,7.82
2017-11-08T01:02:16.446Z,7.82
2017-11-08T01:03:16.423Z,7.83
2017-11-08T01:04:16.732Z,7.79
2017-11-08T01:05:16.396Z,7.64
2017-11-08T01:06:16.720Z,7.67
2017-11-08T01:07:16.384Z,7.55
2017-11-08T01:08:16.690Z,7.61
2017-11-08T01:09:16.027Z,7.63
2017-11-08T01:10:16.674Z,7.55
2017-11-08T01:11:16.663Z,7.64
2017-11-08T01:12:16.654Z,7.57
2017-11-08T01:13:16.633Z,7.57
2017-11-08T01:14:16.627Z,7.52
2017-11-08T01:15:16.287Z,7.61
2017-11-08T01:16:16.593Z,7.48
2017-11-08T01:17:16.584Z,7.46
2017-11-08T01:18:16.256Z,7.6
2017-11-08T01:19:15.916Z,7.52
2017-11-08T01:20:16.553Z,7.49
2017-11-08T01:21:16.546Z,7.57
2017-11-08T01:22:16.204Z,7.46
2017-11-08T01:23:16.516Z,7.53
2017-11-08T01:24:16.185Z,7.5
2017-11-08T01:25:16.506Z,7.6
2017-11-08T01:26:16.486Z,7.48
2017-11-08T01:27:16.470Z,7.55
2017-11-08T01:28:16.139Z,7.55
2017-11-08T01:29:16.459Z,7.53
2017-11-08T01:30:16.440Z,7.43
2017-11-08T01:31:16.104Z,7.53
2017-11-08T01:32:16.090Z,7.52
2017-11-08T01:33:16.400Z,7.57
2017-11-08T01:34:15.744Z,7.5
2017-11-08T01:35:16.059Z,7.53
2017-11-08T01:36:16.374Z,7.45
2017-11-08T01:37:16.352Z,7.46
2017-11-08T01:38:16.021Z,7.35
2017-11-08T01:39:16.334Z,7.45
2017-11-08T01:40:15.674Z,7.37
2017-11-08T01:41:15.987Z,7.34
2017-11-08T01:42:15.973Z,7.4
2017-11-08T01:43:16.283Z,7.43
2017-11-08T01:44:16.285Z,7.45
2017-11-08T01:45:16.265Z,7.45
2017-11-08T01:46:15.932Z,7.4
2017-11-08T01:47:16.243Z,7.39
2017-11-08T01:48:16.236Z,7.4
2017-11-08T01:49:15.896Z,7.46
2017-11-08T01:50:15.560Z,7.46
2017-11-08T01:51:16.195Z,7.4
2017-11-08T01:52:16.187Z,7.42
2017-11-08T01:53:16.177Z,7.39
2017-11-08T01:54:15.841Z,7.5
2017-11-08T01:55:16.147Z,7.49
2017-11-08T01:56:15.817Z,7.48
2017-11-08T01:57:16.128Z,7.4
2017-11-08T01:58:16.126Z,7.37
2017-11-08T01:59:15.787Z,7.37
2017-11-08T02:00:15.776Z,7.37
2017-11-08T02:01:16.081Z,7.37
2017-11-08T02:02:16.081Z,7.3
2017-11-08T02:03:15.735Z,7.3
2017-11-08T02:04:16.054Z,7.24
2017-11-08T02:05:16.042Z,7.28
2017-11-08T02:06:16.038Z,7.27
2017-11-08T02:07:16.013Z,7.35
2017-11-08T02:08:16.015Z,7.28
2017-11-08T02:09:15.988Z,7.28
2017-11-08T02:10:15.653Z,7.24
2017-11-08T02:11:15.641Z,7.32
2017-11-08T02:12:15.951Z,7.24
2017-11-08T02:13:15.939Z,7.28
2017-11-08T02:14:15.936Z,7.3
2017-11-08T02:15:15.924Z,7.3
2017-11-08T02:16:15.913Z,7.32
2017-11-08T02:17:15.576Z,7.34
2017-11-08T02:18:15.889Z,7.34
2017-11-08T02:19:15.551Z,7.34
2017-11-08T02:20:15.539Z,7.32
2017-11-08T02:21:15.850Z,7.3
2017-11-08T02:22:15.851Z,7.27
2017-11-08T02:23:15.838Z,7.28
2017-11-08T02:24:15.497Z,7.37
2017-11-08T02:25:15.814Z,7.34
2017-11-08T02:26:15.803Z,7.39
2017-11-08T02:27:15.455Z,7.37
2017-11-08T02:28:15.778Z,7.3
2017-11-08T02:29:15.766Z,7.27
2017-11-08T02:30:15.440Z,7.25
2017-11-08T02:31:15.426Z,7.27
2017-11-08T02:32:15.735Z,7.23
2017-11-08T02:33:15.386Z,7.31
2017-11-08T02:34:15.377Z,7.31
2017-11-08T02:35:15.687Z,7.31
2017-11-08T02:36:15.672Z,7.3
2017-11-08T02:37:15.344Z,7.24
2017-11-08T02:38:15.328Z,7.25
2017-11-08T02:39:15.645Z,7.27
2017-11-08T02:40:15.633Z,7.25
2017-11-08T02:41:15.619Z,7.17
2017-11-08T02:42:15.608Z,7.21
2017-11-08T02:43:15.616Z,7.21
2017-11-08T02:44:15.582Z,7.16
2017-11-08T02:45:15.255Z,7.2
2017-11-08T02:46:14.911Z,7.15
2017-11-08T02:47:15.555Z,7.17
2017-11-08T02:48:15.540Z,7.17
2017-11-08T02:49:15.204Z,7.21
2017-11-08T02:50:15.515Z,7.13
2017-11-08T02:51:15.509Z,7.16
2017-11-08T02:52:15.164Z,7.16
2017-11-08T02:53:15.477Z,7.13
2017-11-08T02:54:14.821Z,7.16
2017-11-08T02:55:15.128Z,7.07
2017-11-08T02:56:15.442Z,7.13
2017-11-08T02:57:15.428Z,7.09
2017-11-08T02:58:15.097Z,7.07
2017-11-08T02:59:15.085Z,7.12
2017-11-08T03:00:15.395Z,7.06
2017-11-08T03:01:15.386Z,7.17
2017-11-08T03:02:15.052Z,7.13
2017-11-08T03:03:15.034Z,7.12
2017-11-08T03:04:15.370Z,7.03
2017-11-08T03:05:15.338Z,7.16
2017-11-08T03:06:15.325Z,7.02
2017-11-08T03:07:14.987Z,7.13
2017-11-08T03:08:14.978Z,7.13
2017-11-08T03:09:15.285Z,7.12
2017-11-08T03:10:15.278Z,7.13
2017-11-08T03:11:15.272Z,6.97
2017-11-08T03:12:15.269Z,7.12
2017-11-08T03:13:14.918Z,6.98
2017-11-08T03:14:15.237Z,7.1
2017-11-08T03:15:15.223Z,7.1
2017-11-08T03:16:15.210Z,7.1
2017-11-08T03:17:14.550Z,7.06
2017-11-08T03:18:15.179Z,7.09
2017-11-08T03:19:14.850Z,7.07
2017-11-08T03:20:14.841Z,7.06
2017-11-08T03:21:15.156Z,7.15
2017-11-08T03:22:15.138Z,7.1
2017-11-08T03:23:15.126Z,7.12
2017-11-08T03:24:15.121Z,7.07
2017-11-08T03:25:15.111Z,6.97
2017-11-08T03:26:15.099Z,7.05
2017-11-08T03:27:14.752Z,6.98
2017-11-08T03:28:15.068Z,6.99
2017-11-08T03:29:15.056Z,6.95
2017-11-08T03:30:14.723Z,6.95
2017-11-08T03:31:15.038Z,6.99
2017-11-08T03:32:15.023Z,6.95
2017-11-08T03:33:14.681Z,6.95
2017-11-08T03:34:14.994Z,6.97
2017-11-08T03:35:14.988Z,6.97
2017-11-08T03:36:14.969Z,6.99
2017-11-08T03:37:14.961Z,7.03
2017-11-08T03:38:14.624Z,6.98
2017-11-08T03:39:14.937Z,7.09
2017-11-08T03:40:14.932Z,7.12
2017-11-08T03:41:14.586Z,7.17
2017-11-08T03:42:14.907Z,7.2
2017-11-08T03:43:14.901Z,7.07
2017-11-08T03:44:14.898Z,7.12
2017-11-08T03:45:14.553Z,7.12
2017-11-08T03:46:14.857Z,7.24
2017-11-08T03:47:14.519Z,7.3
2017-11-08T03:48:14.830Z,7.25
2017-11-08T03:49:14.814Z,7.39
2017-11-08T03:50:14.492Z,7.3
2017-11-08T03:51:14.470Z,7.31
2017-11-08T03:52:14.785Z,7.4
2017-11-08T03:53:14.782Z,7.4
2017-11-08T03:54:14.433Z,7.45
2017-11-08T03:55:14.422Z,7.39
2017-11-08T03:56:14.418Z,7.45
2017-11-08T03:57:14.726Z,7.48
2017-11-08T03:58:14.721Z,7.49
2017-11-08T03:59:14.701Z,7.5
2017-11-08T04:00:14.690Z,7.58
2017-11-08T04:01:14.352Z,7.64
2017-11-08T04:02:14.667Z,7.6
2017-11-08T04:03:14.340Z,7.55
2017-11-08T04:04:14.646Z,7.64
2017-11-08T04:05:14.662Z,7.64
2017-11-08T04:06:14.296Z,7.67
2017-11-08T04:07:14.614Z,7.52
2017-11-08T04:08:14.598Z,7.55
2017-11-08T04:09:14.265Z,7.49
2017-11-08T04:10:14.252Z,7.52
2017-11-08T04:11:14.561Z,7.42
2017-11-08T04:12:14.227Z,7.48
2017-11-08T04:13:14.543Z,7.55
2017-11-08T04:14:14.533Z,7.5
2017-11-08T04:15:14.521Z,7.61
2017-11-08T04:16:14.521Z,7.58
2017-11-08T04:17:14.493Z,7.58
2017-11-08T04:18:14.490Z,7.71
2017-11-08T04:19:14.148Z,7.64
2017-11-08T04:20:14.464Z,7.69
2017-11-08T04:21:14.443Z,7.83
2017-11-08T04:22:14.116Z,7.8
2017-11-08T04:23:14.104Z,7.8
2017-11-08T04:24:14.415Z,7.89
2017-11-08T04:25:14.404Z,8
2017-11-08T04:26:14.067Z,8
2017-11-08T04:27:14.387Z,7.97
2017-11-08T04:28:14.046Z,8
2017-11-08T04:29:14.035Z,8.01
2017-11-08T04:30:14.345Z,8.11
2017-11-08T04:31:14.010Z,8.16
2017-11-08T04:32:14.324Z,8.12
2017-11-08T04:33:14.317Z,8.25
2017-11-08T04:34:14.303Z,8.2
2017-11-08T04:35:14.296Z,8.3
2017-11-08T04:36:14.283Z,8.25
2017-11-08T04:37:13.949Z,8.3
2017-11-08T04:38:14.279Z,8.3
2017-11-08T04:39:14.248Z,8.3
2017-11-08T04:40:14.236Z,8.45
2017-11-08T04:41:13.900Z,8.38
2017-11-08T04:42:14.209Z,8.47
2017-11-08T04:43:14.221Z,8.38
2017-11-08T04:44:13.862Z,8.52
2017-11-08T04:45:14.186Z,8.5
2017-11-08T04:46:14.185Z,8.48
2017-11-08T04:47:14.168Z,8.55
2017-11-08T04:48:14.145Z,8.52
2017-11-08T04:49:14.134Z,8.55
2017-11-08T04:50:14.120Z,8.59
2017-11-08T04:51:14.127Z,8.61
2017-11-08T04:52:14.102Z,8.62
2017-11-08T04:53:14.094Z,8.58
2017-11-08T04:54:14.086Z,8.73
2017-11-08T04:55:14.067Z,8.74
2017-11-08T04:56:13.735Z,8.65
2017-11-08T04:57:13.728Z,8.74
2017-11-08T04:58:13.717Z,8.68
2017-11-08T04:59:14.055Z,8.66
2017-11-08T05:00:13.700Z,8.62
2017-11-08T05:01:13.686Z,8.76
2017-11-08T05:02:13.997Z,8.7
2017-11-08T05:03:13.990Z,8.76
2017-11-08T05:04:13.979Z,8.77
2017-11-08T05:05:13.639Z,8.7
2017-11-08T05:06:13.308Z,8.71
2017-11-08T05:07:13.295Z,8.73
2017-11-08T05:08:13.930Z,8.83
2017-11-08T05:09:13.603Z,8.83
2017-11-08T05:10:13.907Z,8.8
2017-11-08T05:11:13.900Z,8.8
2017-11-08T05:12:13.895Z,8.8
2017-11-08T05:13:13.884Z,8.79
2017-11-08T05:14:13.871Z,8.86
2017-11-08T05:15:13.540Z,8.86
2017-11-08T05:16:13.540Z,8.83
2017-11-08T05:17:13.869Z,8.94
2017-11-08T05:18:13.843Z,8.91
2017-11-08T05:19:13.822Z,8.86
2017-11-08T05:20:13.480Z,8.79
2017-11-08T05:21:13.804Z,8.81
2017-11-08T05:22:13.468Z,8.86
2017-11-08T05:23:13.786Z,8.94
2017-11-08T05:24:13.118Z,8.87
2017-11-08T05:25:13.445Z,8.99
2017-11-08T05:26:13.747Z,8.84
2017-11-08T05:27:13.740Z,8.87
2017-11-08T05:28:13.728Z,8.81
2017-11-08T05:29:13.717Z,8.84
2017-11-08T05:30:13.699Z,8.89
2017-11-08T05:31:13.696Z,8.86
2017-11-08T05:32:13.691Z,8.94
2017-11-08T05:33:13.671Z,8.94
2017-11-08T05:34:13.671Z,8.91
2017-11-08T05:35:13.669Z,8.83
2017-11-08T05:36:13.643Z,8.81
2017-11-08T05:37:13.648Z,8.8
2017-11-08T05:38:13.632Z,8.76
2017-11-08T05:39:13.292Z,8.79
2017-11-08T05:40:13.607Z,8.81
2017-11-08T05:41:13.600Z,8.89
2017-11-08T05:42:13.575Z,8.94
2017-11-08T05:43:13.570Z,8.8
2017-11-08T05:44:13.244Z,8.83
2017-11-08T05:45:13.223Z,8.79
2017-11-08T05:46:13.532Z,8.71
2017-11-08T05:47:13.198Z,8.73
2017-11-08T05:48:13.192Z,8.76
2017-11-08T05:49:13.510Z,8.61
2017-11-08T05:50:13.181Z,8.62
2017-11-08T05:51:13.164Z,8.48
2017-11-08T05:52:12.823Z,8.37
2017-11-08T05:53:13.136Z,8.44
2017-11-08T05:54:13.450Z,8.43
2017-11-08T05:55:13.438Z,8.3
2017-11-08T05:56:13.106Z,8.25
2017-11-08T05:57:13.415Z,8.2
2017-11-08T05:58:13.400Z,8.16
2017-11-08T05:59:13.072Z,8.01
2017-11-08T06:00:13.059Z,8.07
2017-11-08T06:01:13.049Z,8.01
2017-11-08T06:02:12.715Z,7.98
2017-11-08T06:03:13.022Z,7.93
2017-11-08T06:04:13.343Z,7.89
2017-11-08T06:05:13.001Z,7.87
2017-11-08T06:06:13.318Z,7.83
2017-11-08T06:07:12.982Z,7.79
2017-11-08T06:08:13.294Z,7.72
2017-11-08T06:09:13.285Z,7.74
2017-11-08T06:10:12.950Z,7.63
2017-11-08T06:11:12.936Z,7.68
2017-11-08T06:12:12.927Z,7.55
2017-11-08T06:13:13.239Z,7.55
2017-11-08T06:14:12.904Z,7.5
2017-11-08T06:15:13.218Z,7.64
2017-11-08T06:16:13.205Z,7.52
2017-11-08T06:17:12.869Z,7.55
2017-11-08T06:18:13.184Z,7.49
2017-11-08T06:19:13.172Z,7.46
2017-11-08T06:20:12.838Z,7.46
2017-11-08T06:21:12.826Z,7.42
2017-11-08T06:22:12.811Z,7.42
2017-11-08T06:23:13.125Z,7.46
2017-11-08T06:24:12.792Z,7.37
2017-11-08T06:25:13.122Z,7.34
2017-11-08T06:26:13.092Z,7.42
2017-11-08T06:27:13.084Z,7.3
2017-11-08T06:28:13.067Z,7.27
2017-11-08T06:29:13.055Z,7.31
2017-11-08T06:30:13.050Z,7.3
2017-11-08T06:31:13.033Z,7.32
2017-11-08T06:32:12.710Z,7.21
2017-11-08T06:33:12.693Z,7.24
2017-11-08T06:34:13.004Z,7.32
2017-11-08T06:35:12.667Z,7.23
2017-11-08T06:36:12.978Z,7.21
2017-11-08T06:37:12.973Z,7.25
2017-11-08T06:38:12.956Z,7.23
2017-11-08T06:39:12.940Z,7.17
2017-11-08T06:40:12.284Z,7.17
2017-11-08T06:41:12.922Z,7.17
2017-11-08T06:42:12.581Z,7.17
2017-11-08T06:43:12.891Z,7.2
2017-11-08T06:44:12.883Z,7.23
2017-11-08T06:45:12.882Z,7.15
2017-11-08T06:46:12.537Z,7.17
2017-11-08T06:47:12.532Z,7.2
2017-11-08T06:48:12.849Z,7.12
2017-11-08T06:49:12.511Z,7.09
2017-11-08T06:50:12.813Z,7.16
2017-11-08T06:51:12.181Z,7.07
2017-11-08T06:52:12.813Z,7.15
2017-11-08T06:53:12.781Z,7.12
2017-11-08T06:54:12.787Z,7.06
2017-11-08T06:55:12.764Z,7.23
2017-11-08T06:56:12.744Z,7.16
2017-11-08T06:57:12.416Z,7.12
2017-11-08T06:58:12.719Z,7.15
2017-11-08T06:59:12.385Z,7.13
2017-11-08T07:00:12.719Z,7.17
2017-11-08T07:01:12.043Z,7.17
2017-11-08T07:02:12.352Z,7.16
2017-11-08T07:03:12.665Z,7.1
2017-11-08T07:04:12.655Z,7.12
2017-11-08T07:05:12.345Z,7.12
2017-11-08T07:06:12.648Z,7.12
2017-11-08T07:07:12.292Z,7.13
2017-11-08T07:08:12.608Z,7.16
2017-11-08T07:09:12.276Z,7.24
2017-11-08T07:10:12.264Z,7.09
2017-11-08T07:11:12.248Z,7.09
2017-11-08T07:12:12.252Z,7.1
2017-11-08T07:13:12.557Z,7.09
2017-11-08T07:14:12.531Z,7.16
2017-11-08T07:15:12.551Z,7.15
2017-11-08T07:16:12.514Z,7.09
2017-11-08T07:17:12.181Z,7.2
2017-11-08T07:18:12.501Z,7.1
2017-11-08T07:19:12.176Z,7.12
2017-11-08T07:20:12.489Z,7.2
2017-11-08T07:21:12.464Z,7.24
2017-11-08T07:22:12.129Z,7.25
2017-11-08T07:23:12.111Z,7.16
2017-11-08T07:24:12.429Z,7.21
2017-11-08T07:25:12.106Z,7.2
2017-11-08T07:26:12.409Z,7.28
2017-11-08T07:27:12.389Z,7.28
2017-11-08T07:28:12.379Z,7.21
2017-11-08T07:29:12.367Z,7.32
2017-11-08T07:30:12.044Z,7.31
2017-11-08T07:31:12.028Z,7.3
2017-11-08T07:32:12.019Z,7.28
2017-11-08T07:33:12.321Z,7.34
2017-11-08T07:34:12.323Z,7.23
2017-11-08T07:35:12.313Z,7.2
2017-11-08T07:36:11.965Z,7.3
2017-11-08T07:37:12.274Z,7.28
2017-11-08T07:38:11.940Z,7.3
2017-11-08T07:39:12.257Z,7.24
2017-11-08T07:40:11.918Z,7.32
2017-11-08T07:41:11.911Z,7.35
2017-11-08T07:42:11.913Z,7.34
2017-11-08T07:43:11.884Z,7.3
2017-11-08T07:44:12.229Z,7.3
2017-11-08T07:45:11.552Z,7.39
2017-11-08T07:46:11.852Z,7.32
2017-11-08T07:47:12.170Z,7.28
2017-11-08T07:48:11.830Z,7.37
2017-11-08T07:49:11.824Z,7.43
2017-11-08T07:50:11.826Z,7.45
2017-11-08T07:51:12.156Z,7.48
2017-11-08T07:52:11.805Z,7.43
2017-11-08T07:53:12.095Z,7.37
2017-11-08T07:54:12.081Z,7.42
2017-11-08T07:55:11.750Z,7.43
2017-11-08T07:56:12.060Z,7.48
2017-11-08T07:57:11.725Z,7.5
2017-11-08T07:58:11.750Z,7.53
2017-11-08T07:59:12.027Z,7.52
2017-11-08T08:00:11.694Z,7.57
2017-11-08T08:01:12.048Z,7.6
2017-11-08T08:02:11.685Z,7.5
2017-11-08T08:03:11.662Z,7.5
2017-11-08T08:04:11.978Z,7.58
2017-11-08T08:05:11.639Z,7.58
2017-11-08T08:06:11.626Z,7.6
2017-11-08T08:07:11.948Z,7.55
2017-11-08T08:08:11.933Z,7.61
2017-11-08T08:09:11.603Z,7.72
2017-11-08T08:10:12.157Z,7.67
2017-11-08T08:11:11.630Z,7.68
2017-11-08T08:12:11.886Z,7.83
2017-11-08T08:13:11.564Z,7.75
2017-11-08T08:14:11.539Z,7.82
2017-11-08T08:15:11.864Z,7.8
2017-11-08T08:16:11.866Z,7.87
2017-11-08T08:17:11.828Z,7.92
2017-11-08T08:18:11.496Z,7.86
2017-11-08T08:19:11.499Z,7.93
2017-11-08T08:20:11.486Z,7.98
2017-11-08T08:21:11.137Z,8.02
2017-11-08T08:22:11.785Z,8.01
2017-11-08T08:23:11.444Z,8.01
2017-11-08T08:24:11.457Z,8.04
2017-11-08T08:25:11.439Z,8.02
2017-11-08T08:26:11.434Z,8.04
2017-11-08T08:27:11.400Z,8.04
2017-11-08T08:28:11.416Z,8.04
2017-11-08T08:29:11.709Z,8.04
2017-11-08T08:30:11.377Z,8.07
2017-11-08T08:31:11.364Z,8
2017-11-08T08:32:11.682Z,8.07
2017-11-08T08:33:11.663Z,8.07
2017-11-08T08:34:11.347Z,8.02
2017-11-08T08:35:11.340Z,8.04
2017-11-08T08:36:11.653Z,8.07
2017-11-08T08:37:11.300Z,8.01
2017-11-08T08:38:11.290Z,8.11
2017-11-08T08:39:11.598Z,8.05
2017-11-08T08:40:11.598Z,8.12
2017-11-08T08:41:11.816Z,8.11
2017-11-08T08:42:11.567Z,8.16
2017-11-08T08:43:11.554Z,8.19
2017-11-08T08:44:11.541Z,8.11
2017-11-08T08:45:11.527Z,8.22
2017-11-08T08:46:11.530Z,8.18
2017-11-08T08:47:11.187Z,8.28
2017-11-08T08:48:11.194Z,8.29
2017-11-08T08:49:11.184Z,8.34
2017-11-08T08:50:10.864Z,8.38
2017-11-08T08:51:11.491Z,8.38
2017-11-08T08:52:11.475Z,8.48
2017-11-08T08:53:11.344Z,8.47
2017-11-08T08:54:11.140Z,8.47
2017-11-08T08:55:11.461Z,8.47
2017-11-08T08:56:11.424Z,8.48
2017-11-08T08:57:11.118Z,8.45
2017-11-08T08:58:11.416Z,8.45
2017-11-08T08:59:11.111Z,8.55
2017-11-08T09:00:11.061Z,8.65
2017-11-08T09:01:11.042Z,8.61
2017-11-08T09:02:11.062Z,8.65
2017-11-08T09:03:11.033Z,8.79
2017-11-08T09:04:10.694Z,8.76
2017-11-08T09:05:11.344Z,8.76
2017-11-08T09:06:11.312Z,8.8
2017-11-08T09:07:11.312Z,8.83
2017-11-08T09:08:10.976Z,8.83
2017-11-08T09:09:11.313Z,8.87
2017-11-08T09:10:10.945Z,8.91
2017-11-08T09:11:11.254Z,8.96
2017-11-08T09:12:11.255Z,8.95
2017-11-08T09:13:11.267Z,8.91
2017-11-08T09:14:11.237Z,8.98
2017-11-08T09:15:11.220Z,8.95
2017-11-08T09:16:11.209Z,9.08
2017-11-08T09:17:11.205Z,9.05
2017-11-08T09:18:11.186Z,9.24
2017-11-08T09:19:11.175Z,9.13
2017-11-08T09:20:10.841Z,9.15
2017-11-08T09:21:10.856Z,9.21
2017-11-08T09:22:10.822Z,9.31
2017-11-08T09:23:11.148Z,9.35
2017-11-08T09:24:11.130Z,9.26
2017-11-08T09:25:10.807Z,9.42
2017-11-08T09:26:10.786Z,9.4
2017-11-08T09:27:11.101Z,9.53
2017-11-08T09:28:11.102Z,9.64
2017-11-08T09:29:11.080Z,9.65
2017-11-08T09:30:10.755Z,9.65
2017-11-08T09:31:11.059Z,9.58
2017-11-08T09:32:11.073Z,9.71
2017-11-08T09:33:11.042Z,9.78
2017-11-08T09:34:10.387Z,9.9
2017-11-08T09:35:11.016Z,9.93
2017-11-08T09:36:11.012Z,9.96
2017-11-08T09:37:11.009Z,10.09
2017-11-08T09:38:10.672Z,9.91
2017-11-08T09:39:10.995Z,9.89
2017-11-08T09:40:11.003Z,9.99
2017-11-08T09:41:10.645Z,10.02
2017-11-08T09:42:10.968Z,9.99
2017-11-08T09:43:10.948Z,10.01
2017-11-08T09:44:10.618Z,10.11
2017-11-08T09:45:10.931Z,10.05
2017-11-08T09:46:10.280Z,9.96
2017-11-08T09:47:10.593Z,9.94
2017-11-08T09:48:10.910Z,9.89
2017-11-08T09:49:10.566Z,9.87
2017-11-08T09:50:10.883Z,9.87
2017-11-08T09:51:10.878Z,9.87
2017-11-08T09:52:10.871Z,9.86
2017-11-08T09:53:10.566Z,9.9
2017-11-08T09:54:10.203Z,9.89
2017-11-08T09:55:10.856Z,9.83
2017-11-08T09:56:10.507Z,9.76
2017-11-08T09:57:10.848Z,9.78
2017-11-08T09:58:10.817Z,9.75
2017-11-08T09:59:10.822Z,9.76
2017-11-08T10:00:10.486Z,9.89
2017-11-08T10:01:10.480Z,9.79
2017-11-08T10:02:10.782Z,9.9
2017-11-08T10:03:10.786Z,9.99
2017-11-08T10:04:10.876Z,9.79
2017-11-08T10:05:10.777Z,9.9
2017-11-08T10:06:10.445Z,9.83
2017-11-08T10:07:10.750Z,9.89
2017-11-08T10:08:10.448Z,9.93
2017-11-08T10:09:10.756Z,9.89
2017-11-08T10:10:10.795Z,10.01
2017-11-08T10:11:10.416Z,10.01
2017-11-08T10:12:10.746Z,9.97
2017-11-08T10:13:10.737Z,10.02
2017-11-08T10:14:10.723Z,9.99
2017-11-08T10:15:10.667Z,10.11
2017-11-08T10:16:10.375Z,10.11
2017-11-08T10:17:10.657Z,10.15
2017-11-08T10:18:10.636Z,10.17
2017-11-08T10:19:10.624Z,10.25
2017-11-08T10:20:10.312Z,10.17
2017-11-08T10:21:10.278Z,10.2
2017-11-08T10:22:10.589Z,10.3
2017-11-08T10:23:09.941Z,10.32
2017-11-08T10:24:10.249Z,10.42
2017-11-08T10:25:10.575Z,10.48
2017-11-08T10:26:10.227Z,10.48
2017-11-08T10:27:10.591Z,10.48
2017-11-08T10:28:10.545Z,10.48
2017-11-08T10:29:10.528Z,10.44
2017-11-08T10:30:09.873Z,10.53
2017-11-08T10:31:10.536Z,10.61
2017-11-08T10:32:10.510Z,10.67
2017-11-08T10:33:10.295Z,10.66
2017-11-08T10:34:10.504Z,10.73
2017-11-08T10:35:10.260Z,10.88
2017-11-08T10:36:10.180Z,10.85
2017-11-08T10:37:09.816Z,10.97
2017-11-08T10:38:10.166Z,10.82
2017-11-08T10:39:10.401Z,10.89
2017-11-08T10:40:10.485Z,10.88
2017-11-08T10:41:10.434Z,10.89
2017-11-08T10:42:15.429Z,10.78
2017-11-08T10:43:10.058Z,10.7
2017-11-08T10:44:10.100Z,10.79
2017-11-08T10:45:10.064Z,10.82
2017-11-08T10:46:10.042Z,10.79
2017-11-08T10:47:10.368Z,10.79
2017-11-08T10:48:10.412Z,10.71
2017-11-08T10:49:10.364Z,10.76
2017-11-08T10:50:10.027Z,10.7
2017-11-08T10:51:10.038Z,10.73
2017-11-08T10:52:10.017Z,10.74
2017-11-08T10:53:09.961Z,10.84
2017-11-08T10:54:10.282Z,10.86
2017-11-08T10:55:10.266Z,10.96
2017-11-08T10:56:10.172Z,10.86
2017-11-08T10:57:09.612Z,10.84
2017-11-08T10:58:09.922Z,10.91
2017-11-08T10:59:09.943Z,10.89
2017-11-08T11:00:09.931Z,10.86
2017-11-08T11:01:09.923Z,10.89
2017-11-08T11:02:10.249Z,10.84
2017-11-08T11:03:10.220Z,10.84
2017-11-08T11:04:09.864Z,10.92
2017-11-08T11:05:10.199Z,10.97
2017-11-08T11:06:10.177Z,10.88
2017-11-08T11:07:10.175Z,10.94
2017-11-08T11:08:09.832Z,10.96
2017-11-08T11:09:10.171Z,11
2017-11-08T11:10:09.812Z,11.04
2017-11-08T11:11:10.146Z,11.03
2017-11-08T11:12:10.150Z,11.04
2017-11-08T11:13:10.133Z,11.09
2017-11-08T11:14:10.140Z,11.09
2017-11-08T11:15:10.139Z,11.09
2017-11-08T11:16:09.785Z,11.11
2017-11-08T11:17:10.086Z,11.04
2017-11-08T11:18:09.431Z,11.07
2017-11-08T11:19:09.735Z,11.09
2017-11-08T11:20:10.063Z,11.02
2017-11-08T11:21:10.056Z,10.89
2017-11-08T11:22:10.086Z,10.97
2017-11-08T11:23:09.720Z,10.99
2017-11-08T11:24:09.748Z,10.97
2017-11-08T11:25:09.373Z,11.03
2017-11-08T11:26:10.393Z,10.94
2017-11-08T11:27:10.050Z,10.85
2017-11-08T11:28:10.018Z,10.84
2017-11-08T11:29:09.983Z,10.89
2017-11-08T11:30:09.983Z,10.85
2017-11-08T11:31:09.994Z,10.89
2017-11-08T11:32:09.960Z,10.89
2017-11-08T11:33:09.634Z,10.82
2017-11-08T11:34:09.939Z,10.85
2017-11-08T11:35:09.926Z,10.84
2017-11-08T11:36:09.939Z,10.76
2017-11-08T11:37:09.927Z,10.89
2017-11-08T11:38:09.576Z,10.81
2017-11-08T11:39:09.898Z,10.91
2017-11-08T11:40:09.602Z,10.89
2017-11-08T11:41:09.887Z,10.92
2017-11-08T11:42:09.554Z,10.85
2017-11-08T11:43:09.871Z,10.94
2017-11-08T11:44:09.548Z,11.06
2017-11-08T11:45:09.857Z,10.92
2017-11-08T11:46:09.846Z,11.1
2017-11-08T11:47:09.844Z,11.1
2017-11-08T11:48:09.873Z,11.24
2017-11-08T11:49:09.810Z,11.28
2017-11-08T11:50:09.805Z,11.32
2017-11-08T11:51:09.474Z,11.35
2017-11-08T11:52:09.459Z,11.35
2017-11-08T11:53:09.460Z,11.4
2017-11-08T11:54:09.461Z,11.4
2017-11-08T11:55:09.443Z,11.4
2017-11-08T11:56:09.765Z,11.46
2017-11-08T11:57:09.744Z,11.52
2017-11-08T11:58:09.420Z,11.49
2017-11-08T11:59:09.400Z,11.54
2017-11-08T12:00:09.390Z,11.55
2017-11-08T12:01:09.393Z,11.72
2017-11-08T12:02:09.712Z,11.7
2017-11-08T12:03:09.710Z,11.8
2017-11-08T12:04:09.703Z,11.86
2017-11-08T12:05:09.689Z,11.86
2017-11-08T12:06:09.689Z,11.86
2017-11-08T12:07:09.360Z,11.86
2017-11-08T12:08:09.680Z,11.8
2017-11-08T12:09:09.337Z,11.76
2017-11-08T12:10:09.643Z,11.75
2017-11-08T12:11:09.317Z,11.78
2017-11-08T12:12:09.371Z,11.75
2017-11-08T12:13:09.356Z,11.82
2017-11-08T12:14:09.757Z,11.86
2017-11-08T12:15:09.342Z,11.9
2017-11-08T12:16:09.623Z,11.88
2017-11-08T12:17:09.651Z,11.85
2017-11-08T12:18:09.644Z,11.88
2017-11-08T12:19:09.601Z,11.9
2017-11-08T12:20:09.326Z,11.9
2017-11-08T12:21:09.630Z,11.86
2017-11-08T12:22:09.285Z,11.9
2017-11-08T12:23:09.611Z,11.82
2017-11-08T12:24:09.231Z,11.95
2017-11-08T12:25:09.604Z,11.95
2017-11-08T12:26:09.603Z,11.85
2017-11-08T12:27:09.506Z,11.8
2017-11-08T12:28:09.521Z,11.85
2017-11-08T12:29:09.503Z,11.86
2017-11-08T12:30:11.079Z,11.85
2017-11-08T12:31:09.492Z,11.83
2017-11-08T12:32:09.162Z,11.79
2017-11-08T12:33:09.490Z,11.76
2017-11-08T12:34:09.489Z,11.86
2017-11-08T12:35:09.165Z,11.8
2017-11-08T12:36:09.470Z,11.86
2017-11-08T12:37:09.448Z,11.86
2017-11-08T12:38:09.102Z,11.86
2017-11-08T12:39:09.099Z,11.86
2017-11-08T12:40:09.426Z,11.86
2017-11-08T12:41:09.436Z,11.96
2017-11-08T12:42:09.067Z,12.01
2017-11-08T12:43:09.612Z,12.07
2017-11-08T12:44:09.373Z,12.05
2017-11-08T12:45:09.041Z,12.07
2017-11-08T12:46:09.363Z,12.02
2017-11-08T12:47:09.051Z,11.98
2017-11-08T12:48:09.361Z,11.96
2017-11-08T12:49:09.333Z,12.01
2017-11-08T12:50:09.332Z,11.86
2017-11-08T12:51:09.331Z,11.91
2017-11-08T12:52:09.015Z,11.9
2017-11-08T12:53:09.317Z,11.85
2017-11-08T12:54:09.016Z,11.86
2017-11-08T12:55:09.295Z,11.91
2017-11-08T12:56:09.365Z,11.95
2017-11-08T12:57:08.947Z,12.01
2017-11-08T12:58:09.273Z,12.12
2017-11-08T12:59:09.264Z,12.04
2017-11-08T13:00:09.256Z,12.01
2017-11-08T13:01:09.278Z,11.96
2017-11-08T13:02:08.926Z,12.04
2017-11-08T13:03:08.906Z,12.02
2017-11-08T13:04:08.902Z,12.02
2017-11-08T13:05:08.887Z,12.01
2017-11-08T13:06:09.241Z,12.12
2017-11-08T13:07:08.890Z,12.01
2017-11-08T13:08:09.187Z,12.17
2017-11-08T13:09:08.905Z,12.19
2017-11-08T13:10:08.849Z,12.21
2017-11-08T13:11:09.174Z,12.28
2017-11-08T13:12:09.172Z,12.24
2017-11-08T13:13:09.193Z,12.39
2017-11-08T13:14:08.860Z,12.5
2017-11-08T13:15:09.151Z,12.37
2017-11-08T13:16:09.143Z,12.42